Terminal Aerodrome Forecast
Issued by NWS

Current Version | Previous Version | Text Only | Print | Product List | Glossary Off
Versions: 1 2 3 4 5 6 7 8 9 10 11 12 13 14 15 16 17 18 19 20 21 22

000
FTUS41 KPBZ 301727
TAFHLG
TAF
KHLG 301727Z 3018/0118 22010G18KT P6SM VCTS BKN035CB
      TEMPO 3020/3023 3SM TSRA BKN025CB
     FM010400 21005KT P6SM VCSH BKN050
     FM010900 24007KT P6SM OVC015
     FM011200 25007KT 5SM BR OVC007
     FM011500 27009KT P6SM BKN050=

USA.gov is the U.S. government's official web portal to all federal, state and local government web resources and services.